クィーンアリア国際空港の過去48時間の天気

クィーンアリア国際空港 (Queen Alia Airport)

現在時刻: 2/5 23:33 EET (2/5 21:33 UTC) 以下の時間は現地時間です。

過去48時間のMETAR気象情報
時間 風向 風速(m/s) 視程 気温(℃) 湿度(%) 気圧(hPa) 天気現象
5 23:00 東南東 2 5000m 5 81 1010 煙霧
5 22:00 3 5000m 6 76 1011 煙霧
OJAI 052100Z 12004KT 5000 HZ NSC 05/02 Q1010 NOSIG
OJAI 052000Z 18005KT 5000 HZ NSC 06/02 Q1011 NOSIG